Time;durP1;ratioP1;P1;durP2;ratioP2;P2;SDS_P1;SDS_P2;PMS_P1;PMS_P2;Temp;Humidity;BMP_temperature;BMP_pressure;BME280_temperature;BME280_humidity;BME280_pressure;Samples;Min_cycle;Max_cycle;Signal;HPM_P1;HPM_P2
2023/09/15 00:00:43;;;;;;;9.60;5.40;;;;;;;-144.05;80.37;56916.81;5014158;28;20112;-78
2023/09/15 00:03:09;;;;;;;9.88;4.88;;;9.30;99.90;;;-144.05;80.46;56916.81;5014706;28;20053;-79
2023/09/15 00:05:37;;;;;;;12.52;5.35;;;;;;;-144.05;80.57;56933.78;5012863;28;20022;-80
2023/09/15 00:08:05;;;;;;;11.30;5.18;;;8.60;99.90;;;-144.05;80.71;56933.78;5013629;28;20057;-81
2023/09/15 00:10:39;;;;;;;8.90;4.25;;;14.90;99.90;;;-144.05;80.84;56931.66;5013465;28;20160;-80
2023/09/15 00:13:05;;;;;;;11.48;5.05;;;14.70;99.90;;;-144.05;80.65;56925.28;5013370;28;20036;-81
2023/09/15 00:15:32;;;;;;;9.45;4.57;;;11.80;99.90;;;-144.05;80.72;56921.06;5012135;28;20026;-79
2023/09/15 00:17:59;;;;;;;10.48;4.45;;;11.60;99.90;;;-144.05;80.89;56946.53;5013366;28;20465;-79
2023/09/15 00:20:25;;;;;;;8.15;4.32;;;11.70;99.90;;;-144.05;80.78;56927.41;5012348;28;20025;-81
2023/09/15 00:22:55;;;;;;;7.07;4.47;;;11.40;99.90;;;-144.05;80.75;56921.06;5015122;28;20040;-78
2023/09/15 00:25:30;;;;;;;7.15;3.70;;;10.30;99.90;;;-144.05;80.99;56961.41;5017759;28;20033;-79
2023/09/15 00:28:00;;;;;;;6.47;4.40;;;8.50;99.90;;;-144.05;80.66;56946.53;5017604;28;20041;-79
2023/09/15 00:30:28;;;;;;;8.02;4.13;;;14.30;99.90;;;-144.05;80.99;56935.91;5015954;28;20116;-81
2023/09/15 00:32:56;;;;;;;5.95;3.75;;;11.50;99.90;;;-144.05;81.17;56925.28;5016188;28;20122;-80
2023/09/15 00:35:28;;;;;;;10.38;4.75;;;11.70;99.90;;;-144.05;81.00;56933.78;5017249;28;20030;-80
2023/09/15 00:37:57;;;;;;;6.45;4.25;;;11.50;99.90;;;-144.05;80.85;56933.78;5015411;28;20069;-80
2023/09/15 00:40:24;;;;;;;8.13;4.00;;;11.80;99.90;;;-144.05;81.02;56940.16;5015601;28;20406;-81
2023/09/15 00:42:52;;;;;;;8.60;4.35;;;11.30;99.90;;;-144.05;81.12;56904.06;5028040;28;20066;-80
2023/09/15 00:45:21;;;;;;;9.30;4.10;;;11.20;99.90;;;-144.05;82.09;56942.28;5016552;28;20382;-79
2023/09/15 00:47:55;;;;;;;6.75;3.85;;;11.90;99.90;;;-144.05;83.31;56938.03;5016243;28;20025;-81
2023/09/15 00:50:29;;;;;;;8.90;3.75;;;11.50;99.90;;;-144.05;83.17;56933.78;5015376;28;20034;-79
2023/09/15 00:53:13;;;;;;;9.00;3.95;;;11.50;99.90;;;-144.05;84.01;56929.53;5016452;28;20053;-79
2023/09/15 00:55:42;;;;;;;7.90;4.25;;;11.80;99.90;;;-144.05;84.07;56901.94;5027961;28;20025;-80
2023/09/15 00:58:11;;;;;;;6.63;3.70;;;11.40;99.90;;;-144.05;83.91;56929.53;5029451;28;20033;-81
2023/09/15 01:00:43;;;;;;;10.13;3.58;;;9.30;99.90;;;-144.05;84.14;56897.69;5028936;28;20025;-81
2023/09/15 01:03:17;;;;;;;6.45;3.38;;;10.00;99.90;;;-144.05;84.17;56908.31;5027457;28;20081;-82
2023/09/15 01:05:45;;;;;;;7.53;3.78;;;8.60;99.90;;;-144.05;84.51;56914.69;5025297;28;20041;-81
2023/09/15 01:08:12;;;;;;;6.20;4.20;;;11.60;99.90;;;-144.05;84.40;56923.19;5023536;28;20029;-81
2023/09/15 01:10:38;;;;;;;8.63;3.67;;;11.90;99.90;;;-144.05;84.52;56925.28;5023442;28;20030;-81
2023/09/15 01:13:05;;;;;;;7.03;2.85;;;11.20;99.90;;;-144.05;84.57;56933.78;5038533;28;20026;-82
2023/09/15 01:15:56;;;;;;;7.70;3.05;;;11.50;99.90;;;-144.05;84.38;56918.94;5021056;28;20026;-81
2023/09/15 01:19:02;;;;;;;5.53;3.22;;;11.60;99.90;;;-144.05;84.59;56916.81;5017528;28;20502;-81
2023/09/15 01:22:24;;;;;;;10.07;4.03;;;11.70;99.90;;;-144.05;85.00;56942.28;5016713;28;20040;-81
2023/09/15 01:24:57;;;;;;;8.23;3.85;;;11.40;99.90;;;-144.05;84.66;56918.94;5015635;28;20180;-79
2023/09/15 01:28:36;;;;;;;6.13;3.60;;;8.70;99.90;;;-144.05;84.77;56933.78;5016571;28;20113;-79
2023/09/15 01:31:05;;;;;;;6.32;3.67;;;9.50;99.90;;;-144.05;84.59;56923.19;4958962;28;20027;-80
2023/09/15 01:33:32;;;;;;;9.18;4.63;;;9.80;99.90;;;-144.05;84.94;56944.41;4974231;28;20042;-81
2023/09/15 01:35:59;;;;;;;7.10;3.67;;;11.10;99.90;;;-144.05;84.95;56933.78;4998053;28;20089;-80
2023/09/15 01:38:25;;;;;;;7.25;3.78;;;11.60;99.90;;;-144.05;84.68;56921.06;5016287;28;20049;-80
2023/09/15 01:40:51;;;;;;;6.40;3.50;;;;;;;-144.05;84.71;56938.03;5015687;28;20044;-79
2023/09/15 01:43:17;;;;;;;5.90;3.35;;;;;;;-144.05;84.62;56935.91;5014242;28;20117;-81
2023/09/15 01:45:43;;;;;;;5.28;3.30;;;9.20;99.90;;;-144.05;84.71;56921.06;5014076;28;20033;-80
2023/09/15 01:48:12;;;;;;;6.30;3.10;;;11.60;99.90;;;-144.05;84.85;56942.28;5013512;28;20059;-80
2023/09/15 01:50:39;;;;;;;9.30;3.58;;;11.40;99.90;;;-144.05;84.78;56957.16;5014876;28;20058;-81
2023/09/15 01:53:05;;;;;;;8.00;3.58;;;11.70;99.90;;;-144.05;84.82;56957.16;5015222;28;20033;-81
2023/09/15 01:55:34;;;;;;;7.55;3.30;;;11.40;99.90;;;-144.05;85.29;56938.03;5015057;28;20378;-79
2023/09/15 01:58:00;;;;;;;6.57;3.97;;;;;;;-144.05;85.63;56961.41;5013292;28;20034;-80
2023/09/15 02:00:35;;;;;;;7.57;3.85;;;9.50;99.90;;;-144.05;85.15;56940.16;5013087;28;20033;-81
2023/09/15 02:03:01;;;;;;;7.63;3.65;;;11.50;99.90;;;-144.05;84.99;56940.16;5013883;28;20025;-78
2023/09/15 02:05:27;;;;;;;7.78;4.03;;;11.70;99.90;;;-144.05;85.19;56931.66;5014377;28;20395;-79
2023/09/15 02:07:53;;;;;;;8.95;4.22;;;11.70;99.90;;;-144.05;85.21;56938.03;5013907;28;20076;-79
2023/09/15 02:10:18;;;;;;;8.27;3.80;;;11.60;99.90;;;-144.05;84.92;56938.03;5013075;28;20034;-81
2023/09/15 02:12:44;;;;;;;8.43;4.25;;;11.40;99.90;;;-144.05;85.07;56931.66;5014501;28;20411;-81
2023/09/15 02:15:11;;;;;;;12.65;5.03;;;11.50;99.90;;;-144.05;85.32;56946.53;5016221;28;20419;-81
2023/09/15 02:17:40;;;;;;;7.70;4.40;;;11.30;99.90;;;-144.05;85.16;56925.28;5013551;28;20076;-79
2023/09/15 02:20:14;;;;;;;7.47;4.45;;;9.50;99.90;;;-144.05;85.46;56938.03;5012932;28;20507;-81
2023/09/15 02:22:42;;;;;;;7.25;4.18;;;11.10;99.90;;;-144.05;85.26;56931.66;5012855;28;20061;-80
2023/09/15 02:25:09;;;;;;;5.90;3.60;;;11.50;99.90;;;-144.05;85.49;56921.06;5014062;28;20037;-81
2023/09/15 02:27:38;;;;;;;9.63;4.00;;;9.30;99.90;;;-144.05;85.55;56935.91;5012869;28;20124;-80
2023/09/15 02:30:07;;;;;;;6.40;4.25;;;11.40;99.90;;;-144.05;85.61;56938.03;5013551;28;20037;-80
2023/09/15 02:32:33;;;;;;;7.20;3.55;;;8.90;99.90;;;-144.05;85.53;56938.03;5014079;28;20030;-79
2023/09/15 02:34:59;;;;;;;6.82;3.60;;;11.70;99.90;;;-144.05;85.49;56925.28;5013745;28;20096;-79
2023/09/15 02:37:25;;;;;;;8.82;3.83;;;11.60;99.90;;;-144.05;85.64;56929.53;5012448;28;20030;-79
2023/09/15 02:39:50;;;;;;;5.22;3.75;;;8.00;99.90;;;-144.05;85.62;56933.78;5015968;28;20041;-82
2023/09/15 02:42:16;;;;;;;6.95;4.03;;;9.10;99.90;;;-144.05;85.69;56933.78;5017526;28;20061;-82
2023/09/15 02:44:43;;;;;;;8.57;4.13;;;11.40;99.90;;;-144.05;85.66;56946.53;5014538;28;20057;-81
2023/09/15 02:47:09;;;;;;;7.57;3.78;;;;;;;-144.05;85.54;56935.91;5014609;28;20033;-81
2023/09/15 02:49:35;;;;;;;7.22;4.15;;;9.20;99.90;;;-144.05;85.64;56940.16;5015949;28;20037;-82
2023/09/15 02:52:05;;;;;;;7.35;4.00;;;11.00;99.90;;;-144.05;85.56;56918.94;5018582;28;20406;-81
2023/09/15 02:54:30;;;;;;;7.03;3.80;;;9.00;99.90;;;-144.05;85.64;56944.41;5020251;28;20401;-82
2023/09/15 02:56:57;;;;;;;7.25;3.72;;;;;;;-144.05;86.06;56925.28;5034772;28;20030;-82
2023/09/15 02:59:22;;;;;;;8.60;4.30;;;9.00;99.90;;;-144.05;85.86;56942.28;5016449;28;20076;-83
2023/09/15 03:01:50;;;;;;;8.45;3.92;;;;;;;-144.05;85.81;56938.03;5030901;28;20030;-79
2023/09/15 03:04:16;;;;;;;6.00;4.15;;;11.20;99.90;;;-144.05;85.86;56955.03;5012368;28;20092;-79
2023/09/15 03:06:42;;;;;;;6.10;3.45;;;10.10;99.90;;;-144.05;85.96;56906.19;5034612;23;20045;-84
2023/09/15 03:09:08;;;;;;;9.85;3.65;;;11.40;99.90;;;-144.05;85.94;56946.53;5015402;28;20445;-85
2023/09/15 03:11:34;;;;;;;6.78;3.60;;;11.60;99.90;;;-144.05;85.94;56942.28;5013472;28;20033;-87
2023/09/15 03:13:59;;;;;;;6.60;3.70;;;8.10;99.90;;;-144.05;85.84;56918.94;5012871;28;20022;-87
2023/09/15 03:16:26;;;;;;;6.57;3.47;;;;;;;-144.05;86.04;56929.53;5020927;28;20453;-85
2023/09/15 03:18:52;;;;;;;6.72;3.80;;;;;;;-144.05;85.97;56935.91;4995982;28;20030;-85
2023/09/15 03:21:19;;;;;;;9.02;3.22;;;9.60;99.90;;;-144.05;85.98;56942.28;4993782;28;20030;-86
2023/09/15 03:23:49;;;;;;;6.32;3.60;;;9.70;99.90;;;-144.05;86.06;56938.03;4993684;28;20030;-84
2023/09/15 03:26:16;;;;;;;8.20;3.83;;;8.80;99.90;;;-144.05;86.19;56935.91;5001480;28;20050;-84
2023/09/15 03:28:42;;;;;;;8.82;3.75;;;;;;;-144.05;86.13;56929.53;5010020;28;20090;-83
2023/09/15 03:31:08;;;;;;;7.55;3.55;;;;;;;-144.05;85.94;56935.91;5039022;28;20026;-83
2023/09/15 03:33:35;;;;;;;8.25;3.90;;;9.00;99.90;;;-144.05;86.06;56933.78;5029237;28;20022;-85
2023/09/15 03:36:02;;;;;;;5.70;3.30;;;9.00;99.90;;;-144.05;85.93;56938.03;5020257;28;20038;-87
2023/09/15 03:38:28;;;;;;;10.98;3.90;;;;;;;-144.05;86.12;56952.91;5017571;28;20061;-87
2023/09/15 03:40:54;;;;;;;8.68;4.28;;;10.00;99.90;;;-144.05;86.14;56946.53;5016767;28;20257;-84
2023/09/15 03:43:20;;;;;;;6.50;4.18;;;;;;;-144.05;86.67;56963.53;5015488;28;20030;-85
2023/09/15 03:45:48;;;;;;;10.27;4.78;;;;;;;-144.05;86.67;56940.16;5032572;28;20034;-85
2023/09/15 03:48:15;;;;;;;8.07;4.50;;;9.40;99.90;;;-144.05;86.68;56952.91;5005457;28;20038;-86
2023/09/15 03:50:41;;;;;;;9.27;5.10;;;;;;;-144.05;86.62;56946.53;5008821;28;20133;-86
2023/09/15 03:53:07;;;;;;;8.32;4.15;;;11.40;99.90;;;-144.05;86.39;56955.03;4994601;28;20041;-87
2023/09/15 03:55:33;;;;;;;10.88;4.70;;;;;;;-144.05;86.57;56948.66;4999901;28;20030;-86
2023/09/15 03:57:59;;;;;;;8.52;4.25;;;9.70;99.90;;;-144.05;86.78;56935.91;4989244;28;20038;-86
2023/09/15 04:00:26;;;;;;;12.63;5.03;;;9.80;99.90;;;-144.05;86.46;56950.78;5013284;28;20117;-85
2023/09/15 04:02:53;;;;;;;6.18;4.20;;;9.20;99.90;;;-144.05;86.84;56921.06;4995411;28;20058;-84
2023/09/15 04:05:19;;;;;;;6.10;3.85;;;;;;;-144.05;86.62;56948.66;4993603;28;20363;-87
2023/09/15 04:07:47;;;;;;;7.68;4.97;;;9.80;99.90;;;-144.05;86.60;56938.03;5009443;28;20045;-85
2023/09/15 04:10:13;;;;;;;8.15;4.60;;;8.70;99.90;;;-144.05;87.00;56944.41;4992648;28;20062;-86
2023/09/15 04:12:41;;;;;;;5.78;3.65;;;8.90;99.90;;;-144.05;87.01;56940.16;4989365;28;20026;-85
2023/09/15 04:15:11;;;;;;;11.10;3.85;;;8.30;99.90;;;-144.05;86.78;56942.28;5013815;28;20069;-85
2023/09/15 04:17:37;;;;;;;6.70;3.97;;;9.70;99.90;;;-144.05;86.87;56944.41;4994956;28;20085;-87
2023/09/15 04:20:08;;;;;;;8.25;4.13;;;;;;;-144.05;86.62;56942.28;5007557;28;20030;-87
2023/09/15 04:22:34;;;;;;;8.50;3.92;;;8.60;99.90;;;-144.05;86.84;56952.91;4995582;28;20130;-85
2023/09/15 04:25:00;;;;;;;6.70;3.80;;;9.30;99.90;;;-144.05;86.87;56921.06;4998162;28;20065;-84
2023/09/15 04:27:26;;;;;;;6.90;4.05;;;9.20;99.90;;;-144.05;86.87;56944.41;5008794;28;20510;-86
2023/09/15 04:29:57;;;;;;;7.72;3.58;;;8.60;99.90;;;-144.05;86.82;56955.03;4993619;28;20035;-87
2023/09/15 04:32:23;;;;;;;6.25;3.10;;;;;;;-144.05;86.79;56955.03;4992887;28;20025;-86
2023/09/15 04:34:54;;;;;;;6.15;3.42;;;8.50;99.90;;;-144.05;87.07;56950.78;4992018;28;20042;-85
2023/09/15 04:37:21;;;;;;;7.32;3.67;;;9.70;99.90;;;-144.05;87.05;56969.91;4992365;28;20081;-84
2023/09/15 04:39:51;;;;;;;8.95;3.80;;;9.60;99.90;;;-144.05;86.88;56955.03;4999503;28;20113;-87
2023/09/15 04:42:17;;;;;;;6.68;3.40;;;;;;;-144.05;87.02;56946.53;5016927;28;20487;-87
2023/09/15 04:44:43;;;;;;;7.57;3.53;;;9.70;99.90;;;-144.05;87.20;56946.53;4993954;28;20073;-84
2023/09/15 04:47:12;;;;;;;5.65;2.85;;;7.90;99.90;;;-144.05;86.92;56944.41;4984384;28;20057;-88
2023/09/15 04:49:38;;;;;;;7.15;3.65;;;9.70;99.90;;;-144.05;87.02;56940.16;5019060;28;20042;-86
2023/09/15 04:52:05;;;;;;;11.00;3.47;;;8.40;99.90;;;-144.05;86.90;56921.06;4994467;28;20096;-85
2023/09/15 04:54:31;;;;;;;9.77;4.20;;;8.60;99.90;;;-144.05;87.08;56935.91;5011088;28;20073;-85
2023/09/15 04:56:57;;;;;;;5.43;3.50;;;;;;;-144.05;86.90;56925.28;4994440;28;20501;-86
2023/09/15 04:59:25;;;;;;;8.82;3.83;;;9.10;99.90;;;-144.05;87.09;56925.28;4994836;28;20542;-86
2023/09/15 05:01:51;;;;;;;7.85;5.03;;;8.60;99.90;;;-144.05;85.07;56935.91;5003381;28;20038;-86
2023/09/15 05:04:19;;;;;;;10.40;4.40;;;8.40;99.90;;;-144.05;84.17;56938.03;5019686;28;20037;-86
2023/09/15 05:06:45;;;;;;;11.52;4.97;;;9.60;99.90;;;-144.05;84.07;56931.66;5012805;28;20045;-86
2023/09/15 05:09:11;;;;;;;8.23;3.67;;;;;;;-144.05;83.84;56925.28;5014764;28;20026;-84
2023/09/15 05:11:38;;;;;;;6.18;3.70;;;8.30;99.90;;;-144.05;83.48;56961.41;5000065;28;20545;-85
2023/09/15 05:14:05;;;;;;;7.13;3.65;;;8.60;99.90;;;-144.05;83.84;56952.91;5013944;28;20030;-84
2023/09/15 05:16:32;;;;;;;7.10;3.75;;;7.90;99.90;;;-144.05;83.84;56912.56;5024223;28;20121;-85
2023/09/15 05:18:58;;;;;;;6.13;3.30;;;8.70;99.90;;;-144.05;83.72;56925.28;5031804;28;20038;-82
2023/09/15 05:21:24;;;;;;;8.75;4.13;;;9.40;99.90;;;-144.05;83.90;56935.91;5031438;28;20022;-87
2023/09/15 05:23:51;;;;;;;9.65;4.10;;;;;;;-144.05;83.91;56935.91;5029010;28;20057;-85
2023/09/15 05:26:18;;;;;;;13.00;4.25;;;;;;;-144.05;83.92;56935.91;5009519;28;20471;-86
2023/09/15 05:28:44;;;;;;;6.25;3.75;;;8.20;99.90;;;-144.05;83.84;56925.28;5018561;28;20058;-87
2023/09/15 05:31:12;;;;;;;8.73;3.63;;;;;;;-144.05;83.94;56972.03;5016288;28;20038;-80
2023/09/15 05:33:38;;;;;;;7.38;3.85;;;;;;;-144.05;83.63;56942.28;5019737;28;20026;-87
2023/09/15 05:36:04;;;;;;;7.63;3.50;;;;;;;-144.05;83.67;56950.78;5019672;28;20041;-87
2023/09/15 05:38:30;;;;;;;7.32;3.78;;;9.50;99.90;;;-144.05;83.93;56948.66;5000458;28;20037;-85
2023/09/15 05:40:56;;;;;;;5.88;3.42;;;9.40;99.90;;;-144.05;83.61;56931.66;5019823;28;20022;-85
2023/09/15 05:43:23;;;;;;;7.70;3.88;;;;;;;-144.05;83.84;56893.44;5018984;28;20087;-88
2023/09/15 05:45:49;;;;;;;8.38;4.40;;;9.10;99.90;;;-144.05;84.00;56957.16;5002362;28;20503;-84
2023/09/15 05:48:18;;;;;;;9.88;4.00;;;9.60;99.90;;;-144.05;83.88;56929.53;5009743;28;20042;-85
2023/09/15 05:50:45;;;;;;;8.43;3.90;;;11.40;99.90;;;-144.05;83.85;56942.28;5006349;28;20525;-83
2023/09/15 05:53:10;;;;;;;7.43;3.95;;;9.00;99.90;;;-144.05;83.79;56933.78;5035930;28;20029;-85
2023/09/15 05:55:36;;;;;;;10.52;4.15;;;11.50;99.90;;;-144.05;84.09;56923.19;5032374;28;20031;-83
2023/09/15 05:58:03;;;;;;;7.00;3.95;;;9.70;99.90;;;-144.05;83.93;56925.28;5010292;28;20148;-83
2023/09/15 06:00:29;;;;;;;7.20;4.05;;;9.40;99.90;;;-144.05;83.86;56901.94;5030752;28;20423;-84
2023/09/15 06:02:54;;;;;;;8.27;3.97;;;11.80;99.90;;;-144.05;83.36;56908.31;5007670;28;20031;-82
2023/09/15 06:05:24;;;;;;;9.07;4.50;;;9.10;99.90;;;-144.05;83.32;56944.41;5000262;28;20065;-88
2023/09/15 06:07:52;;;;;;;6.93;3.80;;;11.70;99.90;;;-144.05;83.02;56921.06;4995886;28;20043;-85
2023/09/15 06:10:19;;;;;;;11.25;4.28;;;8.80;99.90;;;-144.05;83.59;56908.31;5012576;28;20566;-86
2023/09/15 06:12:48;;;;;;;6.28;3.50;;;8.80;99.90;;;-144.05;84.13;56912.56;4998155;28;20079;-83
2023/09/15 06:15:14;;;;;;;6.20;3.35;;;14.30;99.90;;;-144.05;84.56;56948.66;5006876;28;20050;-82
2023/09/15 06:17:40;;;;;;;6.35;3.25;;;10.80;99.90;;;-144.05;84.71;56918.94;5001285;28;20085;-85
2023/09/15 06:20:07;;;;;;;5.10;2.60;;;11.00;99.90;;;-144.05;84.53;56912.56;4991331;28;20033;-85
2023/09/15 06:22:34;;;;;;;8.20;2.88;;;14.80;99.90;;;-144.05;83.91;56906.19;5010611;28;20437;-85
2023/09/15 06:25:01;;;;;;;5.68;2.80;;;14.80;99.90;;;-144.05;82.92;56878.56;5003245;28;20037;-84
2023/09/15 06:27:27;;;;;;;4.38;2.58;;;14.50;99.90;;;-144.05;81.42;56889.19;5001325;28;20403;-84
2023/09/15 06:29:54;;;;;;;3.38;2.50;;;;;;;-144.05;79.80;56906.19;4999330;28;20042;-84
2023/09/15 06:32:20;;;;;;;4.55;2.70;;;15.40;99.90;;;-144.05;78.06;56933.78;5002543;28;20022;-84
2023/09/15 06:34:46;;;;;;;4.32;2.90;;;15.40;99.90;;;-144.05;77.54;56893.44;5002378;28;20033;-86
2023/09/15 06:37:11;;;;;;;7.45;3.38;;;15.00;99.90;;;-144.05;73.71;56906.19;5027661;28;20036;-87
2023/09/15 06:39:38;;;;;;;6.18;3.15;;;;;;;-144.05;71.32;56914.69;5006861;28;20039;-85
2023/09/15 06:42:04;;;;;;;6.22;3.38;;;15.00;99.90;;;-144.05;69.51;56921.06;5019836;28;20442;-85
2023/09/15 06:44:34;;;;;;;8.13;3.47;;;15.40;99.90;;;-144.05;67.09;56918.94;5014950;28;20030;-86
2023/09/15 06:47:01;;;;;;;8.25;3.67;;;16.10;99.90;;;-144.05;65.90;56923.19;5004393;28;20034;-85
2023/09/15 06:49:28;;;;;;;6.07;3.35;;;12.80;99.90;;;-144.05;64.95;56925.28;5001907;28;20030;-86
2023/09/15 06:51:54;;;;;;;8.02;3.50;;;16.80;99.90;;;-144.05;63.46;56940.16;5001828;28;20022;-85
2023/09/15 06:54:21;;;;;;;6.18;3.35;;;16.70;99.90;;;-144.05;62.70;56938.03;4995705;28;20026;-87
2023/09/15 06:56:49;;;;;;;11.43;3.83;;;;;;;-144.05;62.69;56882.81;5028439;28;20505;-86
2023/09/15 06:59:15;;;;;;;9.60;3.90;;;;;;;-144.05;62.97;56901.94;5009932;28;20046;-84
2023/09/15 07:01:41;;;;;;;6.95;3.28;;;;;;;-144.05;63.17;56916.81;5009196;28;20507;-86
2023/09/15 07:04:07;;;;;;;8.93;3.97;;;13.70;99.90;;;-144.05;63.11;56918.94;5003017;28;20054;-86
2023/09/15 07:06:33;;;;;;;8.68;3.70;;;13.70;99.90;;;-144.05;63.09;56918.94;4995846;28;20086;-84
2023/09/15 07:08:59;;;;;;;8.45;3.60;;;;;;;-144.05;62.71;56942.28;4998208;28;20026;-86
2023/09/15 07:11:26;;;;;;;10.48;4.30;;;;;;;-144.05;61.69;56910.44;5017470;28;20090;-86
2023/09/15 07:13:52;;;;;;;9.30;3.88;;;17.50;99.90;;;-144.05;61.86;56938.03;5010055;28;20030;-86
2023/09/15 07:16:17;;;;;;;10.27;4.10;;;13.90;99.90;;;-144.05;60.62;56925.28;4994073;28;20044;-85
2023/09/15 07:18:44;;;;;;;8.73;3.95;;;;;;;-144.05;60.79;56944.41;5012430;28;20042;-84
2023/09/15 07:21:10;;;;;;;9.13;3.88;;;;;;;-144.05;61.33;56904.06;5010642;28;20026;-87
2023/09/15 07:23:36;;;;;;;9.70;4.97;;;17.30;99.90;;;-144.05;60.43;56918.94;5008062;28;20034;-86
2023/09/15 07:26:02;;;;;;;8.88;4.13;;;14.40;99.90;;;-144.05;60.40;56950.78;4999516;28;20042;-84
2023/09/15 07:28:29;;;;;;;10.18;4.57;;;;;;;-144.05;59.91;56929.53;5011242;28;20521;-86
2023/09/15 07:31:06;;;;;;;12.60;4.50;;;17.80;99.90;;;-144.05;59.31;56925.28;5003330;28;20034;-84
2023/09/15 07:33:33;;;;;;;10.20;4.30;;;16.70;99.90;;;-144.05;59.12;56938.03;5035583;28;20125;-86
2023/09/15 07:36:02;;;;;;;12.10;4.53;;;15.10;99.90;;;-144.05;59.20;56938.03;5019116;28;20053;-86
2023/09/15 07:38:29;;;;;;;11.93;4.30;;;18.80;99.90;;;-144.05;58.35;56925.28;5016008;28;20031;-84
2023/09/15 07:40:55;;;;;;;9.10;4.13;;;;;;;-144.05;58.03;56927.41;5015940;28;20037;-86
2023/09/15 07:43:21;;;;;;;7.45;4.00;;;18.30;99.90;;;-144.05;57.08;56931.66;5011294;28;20044;-85
2023/09/15 07:45:50;;;;;;;12.25;4.63;;;17.90;99.90;;;-144.05;56.44;56940.16;5017992;28;20105;-85
2023/09/15 07:48:17;;;;;;;11.90;4.25;;;18.20;99.90;;;-144.05;56.40;56955.03;5007224;28;20030;-84
2023/09/15 07:50:43;;;;;;;11.73;4.80;;;19.40;99.90;;;-144.05;56.04;56950.78;4999588;28;20061;-85
2023/09/15 07:53:10;;;;;;;12.45;4.93;;;;;;;-144.05;55.96;56946.53;5009502;28;20068;-85
2023/09/15 07:55:36;;;;;;;10.40;5.00;;;;;;;-144.05;56.08;56955.03;5019635;28;20025;-86
2023/09/15 07:58:03;;;;;;;13.63;4.50;;;19.30;99.90;;;-144.05;55.89;56944.41;5003700;28;20026;-84
2023/09/15 08:00:29;;;;;;;12.70;4.30;;;;;;;-144.05;55.78;56950.78;5023114;28;20026;-84
2023/09/15 08:02:55;;;;;;;15.10;4.75;;;;;;;-144.05;53.26;56950.78;5007344;28;20030;-85
2023/09/15 08:05:21;;;;;;;17.45;4.68;;;20.30;99.90;;;-144.05;53.89;56959.28;5019226;28;20041;-85
2023/09/15 08:07:49;;;;;;;9.00;4.45;;;20.60;99.90;;;-144.05;52.86;56946.53;5004076;28;20038;-84
2023/09/15 08:10:22;;;;;;;8.55;3.85;;;20.40;99.90;;;-144.05;52.33;56961.41;5039380;28;20077;-84
2023/09/15 08:12:52;;;;;;;7.80;3.67;;;;;;;-144.05;52.22;56961.41;5031963;28;20026;-81
2023/09/15 08:15:22;;;;;;;6.13;3.60;;;19.50;99.90;;;-144.05;52.34;56967.78;5023219;28;20018;-82
2023/09/15 08:17:49;;;;;;;10.30;4.22;;;;;;;-144.05;51.90;56948.66;5008088;28;20036;-83
2023/09/15 08:20:15;;;;;;;9.60;3.58;;;19.40;99.90;;;-144.05;51.40;56982.66;5005468;28;20029;-85
2023/09/15 08:22:42;;;;;;;8.27;3.80;;;17.40;99.90;;;-144.05;51.50;56955.03;5020422;28;20379;-84
2023/09/15 08:25:10;;;;;;;8.88;3.10;;;21.40;99.90;;;-144.05;51.24;56963.53;5010179;28;20034;-84
2023/09/15 08:27:37;;;;;;;8.60;3.63;;;18.10;99.90;;;-144.05;50.50;56984.78;5016201;28;20386;-83
2023/09/15 08:30:08;;;;;;;6.55;3.38;;;21.60;99.90;;;-144.05;48.37;56978.41;5027877;28;20033;-85
2023/09/15 08:32:34;;;;;;;12.65;3.30;;;;;;;-144.05;49.50;56963.53;5015394;28;20053;-84
2023/09/15 08:35:03;;;;;;;5.57;3.03;;;22.20;99.90;;;-144.05;47.87;56989.00;5022157;28;20061;-84
2023/09/15 08:37:29;;;;;;;7.97;2.72;;;21.10;99.90;;;-144.05;47.18;57001.75;5032090;28;20030;-83
2023/09/15 08:39:56;;;;;;;6.57;2.85;;;;;;;-144.05;47.04;57001.75;5035277;28;20056;-83
2023/09/15 08:42:28;;;;;;;9.18;2.63;;;21.30;99.90;;;-144.05;46.67;57010.25;5018788;28;20036;-86
2023/09/15 08:44:57;;;;;;;6.95;2.97;;;19.30;99.90;;;-144.05;44.27;56999.63;5030243;28;20023;-83
2023/09/15 08:47:27;;;;;;;7.45;2.90;;;21.90;99.90;;;-144.05;43.64;56980.53;5014889;28;20022;-83
2023/09/15 08:49:55;;;;;;;12.93;2.80;;;;;;;-144.05;42.41;57020.88;5029544;28;20115;-81
2023/09/15 08:52:22;;;;;;;8.75;2.50;;;21.70;99.90;;;-144.05;41.82;56995.38;5014449;28;20034;-84
2023/09/15 08:54:51;;;;;;;3.45;2.22;;;22.60;99.90;;;-144.05;41.35;57031.50;5015071;28;20102;-84
2023/09/15 08:57:19;;;;;;;4.00;2.00;;;21.80;99.90;;;-144.05;42.05;57008.13;5014843;28;20030;-85
2023/09/15 08:59:46;;;;;;;6.07;2.00;;;23.40;99.90;;;-144.05;41.51;57008.13;5015260;28;20057;-84
2023/09/15 09:02:16;;;;;;;8.80;2.58;;;22.00;99.90;;;-144.05;41.55;57023.00;5014481;28;20022;-85
2023/09/15 09:04:42;;;;;;;4.60;2.20;;;;;;;-144.05;40.05;56999.63;5018659;28;20027;-83
2023/09/15 09:07:09;;;;;;;5.38;2.13;;;;;;;-144.05;40.10;57003.88;5059610;23;20513;-81
2023/09/15 09:09:38;;;;;;;4.57;2.55;;;22.00;99.90;;;-144.05;38.87;56999.63;5036829;28;20061;-83
2023/09/15 09:12:04;;;;;;;6.35;2.15;;;19.90;99.90;;;-144.05;39.36;57003.88;5026004;28;20018;-81
2023/09/15 09:14:31;;;;;;;5.38;2.15;;;;;;;-144.05;39.01;57027.25;5026393;28;20022;-81
2023/09/15 09:17:00;;;;;;;7.47;2.00;;;22.10;99.90;;;-144.05;38.41;57018.75;5021348;28;20085;-79
2023/09/15 09:19:46;;;;;;;5.07;2.20;;;20.20;99.90;;;-144.05;37.88;57023.00;5005109;28;20026;-80
2023/09/15 09:22:18;;;;;;;5.43;1.92;;;23.90;99.90;;;-144.05;36.73;57016.63;5012231;28;20065;-82
2023/09/15 09:24:45;;;;;;;6.10;2.10;;;23.50;99.90;;;-144.05;36.22;57048.50;5004304;28;20030;-82
2023/09/15 09:27:13;;;;;;;5.88;1.80;;;22.60;99.90;;;-144.05;36.18;57003.88;5012100;28;20121;-83
2023/09/15 09:29:40;;;;;;;4.45;2.10;;;23.80;99.90;;;-144.05;35.79;57035.75;5011017;28;20035;-82
2023/09/15 09:32:06;;;;;;;5.45;2.20;;;22.70;99.90;;;-144.05;36.26;57008.13;5005370;28;20041;-80
2023/09/15 09:34:32;;;;;;;5.38;1.85;;;24.60;99.90;;;-144.05;36.10;57048.50;5014206;28;20442;-82
2023/09/15 09:36:58;;;;;;;3.67;1.90;;;22.70;99.90;;;-144.05;35.19;57048.50;5004114;28;20026;-82
2023/09/15 09:39:26;;;;;;;3.92;1.73;;;24.60;99.90;;;-144.05;35.98;57033.63;5000599;28;20118;-81
2023/09/15 09:41:52;;;;;;;3.70;1.70;;;22.90;99.90;;;-144.05;35.22;57033.63;5009299;28;20543;-83
2023/09/15 09:44:20;;;;;;;6.30;2.15;;;24.50;99.90;;;-144.05;34.79;57044.25;5004835;28;20056;-81
2023/09/15 09:46:46;;;;;;;4.32;1.85;;;;;;;-144.05;34.60;57044.25;5006355;28;20035;-80
2023/09/15 09:49:13;;;;;;;3.78;2.20;;;;;;;-144.05;36.04;57054.88;5003872;28;20480;-80
2023/09/15 09:51:39;;;;;;;3.40;1.90;;;;;;;-144.05;35.31;57042.13;5009482;28;20038;-82
2023/09/15 09:54:07;;;;;;;5.10;2.40;;;24.10;99.90;;;-144.05;35.57;57052.75;5004669;28;20026;-81
2023/09/15 09:56:33;;;;;;;5.22;1.52;;;24.30;99.90;;;-144.05;35.50;57018.75;4999282;28;20038;-81
2023/09/15 09:59:15;;;;;;;4.32;1.58;;;24.90;99.90;;;-144.05;35.13;57046.38;5010888;28;20100;-81
2023/09/15 10:01:41;;;;;;;3.35;1.90;;;25.20;99.90;;;-144.05;34.55;57059.09;5021545;28;20029;-82
2023/09/15 10:04:07;;;;;;;3.13;1.63;;;21.70;99.90;;;-144.05;35.87;57052.75;5012269;28;20029;-80
2023/09/15 10:06:36;;;;;;;5.18;2.00;;;25.10;99.90;;;-144.05;35.50;57044.25;5010261;28;20057;-77
2023/09/15 10:09:06;;;;;;;4.45;2.03;;;25.20;99.90;;;-144.05;35.08;57029.38;5014568;28;20499;-78
2023/09/15 10:11:34;;;;;;;4.90;2.10;;;24.40;99.90;;;-144.05;35.90;57027.25;4996259;28;20098;-78
2023/09/15 10:14:06;;;;;;;4.53;2.13;;;24.10;99.90;;;-144.05;35.53;57076.09;4996831;28;20030;-77
2023/09/15 10:16:34;;;;;;;5.85;2.10;;;25.10;99.90;;;-144.05;35.58;57048.50;4996227;28;20387;-76
2023/09/15 10:19:05;;;;;;;2.83;1.75;;;24.80;99.90;;;-144.05;35.79;57046.38;4995735;28;20026;-77
2023/09/15 10:21:34;;;;;;;3.10;1.83;;;25.00;99.90;;;-144.05;35.52;57069.72;4996145;28;20030;-78
2023/09/15 10:24:11;;;;;;;7.93;2.13;;;24.40;99.90;;;-144.05;34.41;57048.50;4995079;28;20030;-75